Time;durP1;ratioP1;P1;durP2;ratioP2;P2;SDS_P1;SDS_P2;PMS_P1;PMS_P2;Temp;Humidity;BMP_temperature;BMP_pressure;BME280_temperature;BME280_humidity;BME280_pressure;Samples;Min_cycle;Max_cycle;Signal;HPM_P1;HPM_P2
2022/10/11 00:00:14;;;;;;;1.98;0.75;;;19.50;99.90;;;;;;5084388;28;20191;-77
2022/10/11 00:02:45;;;;;;;5.13;0.70;;;19.70;99.90;;;;;;5093135;28;20609;-77
2022/10/11 00:05:15;;;;;;;2.30;0.60;;;19.80;99.90;;;;;;5099965;28;20199;-76
2022/10/11 00:07:48;;;;;;;2.13;0.73;;;20.10;99.90;;;;;;5103833;28;20272;-78
2022/10/11 00:10:21;;;;;;;1.35;0.80;;;20.30;99.90;;;;;;5105155;28;20282;-76
2022/10/11 00:12:53;;;;;;;1.95;0.85;;;20.30;99.90;;;;;;5101655;28;20206;-77
2022/10/11 00:15:26;;;;;;;1.20;0.60;;;20.40;99.90;;;;;;5085710;28;20228;-77
2022/10/11 00:17:57;;;;;;;1.60;0.75;;;20.50;99.90;;;;;;5096678;28;20195;-77
2022/10/11 00:20:28;;;;;;;3.35;0.70;;;20.60;99.90;;;;;;5098828;28;20393;-77
2022/10/11 00:23:00;;;;;;;2.72;0.75;;;20.70;99.90;;;;;;5099929;28;20230;-77
2022/10/11 00:25:34;;;;;;;4.30;0.73;;;20.70;99.90;;;;;;5083717;28;20940;-77
2022/10/11 00:28:05;;;;;;;3.17;0.88;;;20.60;99.90;;;;;;5101129;28;20221;-77
2022/10/11 00:30:36;;;;;;;1.63;0.73;;;20.50;99.90;;;;;;5099974;28;20585;-77
2022/10/11 00:33:07;;;;;;;3.60;1.08;;;20.50;99.90;;;;;;5099765;28;20186;-77
2022/10/11 00:35:41;;;;;;;1.52;0.70;;;20.50;99.90;;;;;;5097875;28;20202;-77
2022/10/11 00:38:12;;;;;;;0.95;0.60;;;20.50;99.90;;;;;;5097645;28;20199;-78
2022/10/11 00:40:45;;;;;;;4.20;0.70;;;20.40;99.90;;;;;;5096744;28;20223;-77
2022/10/11 00:43:18;;;;;;;1.65;0.60;;;20.40;99.90;;;;;;5101433;28;20207;-77
2022/10/11 00:46:07;;;;;;;3.60;0.88;;;20.30;99.90;;;;;;5101175;28;20202;-77
2022/10/11 00:48:43;;;;;;;1.08;0.70;;;20.20;99.90;;;;;;5082769;28;20226;-77
2022/10/11 00:51:19;;;;;;;1.23;0.60;;;20.10;99.90;;;;;;5098234;28;20274;-77
2022/10/11 00:53:53;;;;;;;1.75;0.88;;;20.00;99.90;;;;;;5100181;28;20191;-77
2022/10/11 00:56:27;;;;;;;3.13;0.77;;;20.10;99.90;;;;;;5101682;28;20294;-78
2022/10/11 00:59:00;;;;;;;1.60;0.85;;;20.10;99.90;;;;;;5113443;28;20417;-77
2022/10/11 01:01:31;;;;;;;3.92;0.80;;;20.10;99.90;;;;;;5108821;28;20305;-77
2022/10/11 01:04:03;;;;;;;2.80;0.80;;;20.30;99.90;;;;;;5097793;28;20263;-78
2022/10/11 01:06:35;;;;;;;5.35;0.90;;;20.30;99.90;;;;;;5085800;28;20206;-77
2022/10/11 01:09:06;;;;;;;3.10;0.80;;;20.30;99.90;;;;;;5101629;28;20563;-77
2022/10/11 01:11:42;;;;;;;1.80;0.70;;;20.30;99.90;;;;;;5102159;28;20199;-77
2022/10/11 01:14:48;;;;;;;1.65;0.68;;;20.40;99.90;;;;;;5099102;28;20223;-77
2022/10/11 01:17:27;;;;;;;4.63;1.00;;;20.40;99.90;;;;;;5097710;28;20703;-77
2022/10/11 01:20:24;;;;;;;1.27;0.68;;;20.40;99.90;;;;;;5098953;28;20195;-77
2022/10/11 01:23:26;;;;;;;1.25;0.77;;;20.60;99.90;;;;;;5075127;28;20279;-76
2022/10/11 01:26:22;;;;;;;1.67;0.70;;;20.70;99.90;;;;;;5090472;28;20199;-82
2022/10/11 01:29:05;;;;;;;3.28;0.77;;;20.70;99.90;;;;;;5083673;28;20252;-77
2022/10/11 01:31:43;;;;;;;1.95;0.80;;;20.70;99.90;;;;;;5096759;28;20183;-77
2022/10/11 01:34:19;;;;;;;2.10;0.63;;;20.70;99.90;;;;;;5094576;28;20278;-77
2022/10/11 01:36:56;;;;;;;1.30;0.70;;;20.70;99.90;;;;;;5094957;28;20210;-77
2022/10/11 01:39:33;;;;;;;2.60;0.70;;;20.70;99.90;;;;;;5078071;28;20242;-78
2022/10/11 01:42:09;;;;;;;3.97;0.70;;;20.80;99.90;;;;;;5081298;28;20731;-77
2022/10/11 01:44:43;;;;;;;2.35;0.55;;;20.70;99.90;;;;;;5094224;28;20565;-77
2022/10/11 01:47:20;;;;;;;2.22;0.70;;;20.80;99.90;;;;;;5094326;28;20215;-78
2022/10/11 01:50:00;;;;;;;2.50;0.70;;;20.70;99.90;;;;;;5094620;28;20197;-78
2022/10/11 01:52:33;;;;;;;2.33;0.68;;;20.70;99.90;;;;;;5093789;28;20191;-78
2022/10/11 01:55:20;;;;;;;1.05;0.65;;;20.60;99.90;;;;;;5089151;28;20290;-77
2022/10/11 01:58:09;;;;;;;3.38;0.90;;;20.60;99.90;;;;;;5078060;28;20196;-77
2022/10/11 02:00:50;;;;;;;2.22;0.60;;;20.50;99.90;;;;;;5094692;28;20278;-79
2022/10/11 02:03:30;;;;;;;2.13;0.70;;;20.50;99.90;;;;;;5093232;28;20199;-77
2022/10/11 02:06:07;;;;;;;1.25;0.68;;;20.60;99.90;;;;;;5106229;28;20188;-75
2022/10/11 02:08:47;;;;;;;1.85;0.90;;;20.60;99.90;;;;;;5093901;28;20191;-77
2022/10/11 02:11:21;;;;;;;3.22;0.70;;;20.70;99.90;;;;;;5095849;28;20822;-77
2022/10/11 02:13:56;;;;;;;4.28;0.90;;;20.80;99.90;;;;;;5092621;28;20230;-78
2022/10/11 02:16:33;;;;;;;2.35;0.98;;;20.90;99.90;;;;;;5075226;28;20250;-78
2022/10/11 02:19:07;;;;;;;2.50;1.02;;;21.00;99.90;;;;;;5072507;28;20192;-78
2022/10/11 02:21:41;;;;;;;2.60;0.70;;;21.20;99.90;;;;;;5072756;28;20219;-78
2022/10/11 02:24:15;;;;;;;1.23;0.60;;;21.30;99.90;;;;;;5072680;28;20206;-78
2022/10/11 02:26:51;;;;;;;1.42;0.75;;;21.30;99.90;;;;;;5074865;28;20183;-78
2022/10/11 02:29:24;;;;;;;1.92;0.60;;;21.70;99.90;;;;;;5073938;28;20199;-78
2022/10/11 02:31:58;;;;;;;3.08;0.70;;;21.90;99.90;;;;;;5074212;28;20200;-78
2022/10/11 02:34:35;;;;;;;2.05;0.70;;;22.10;99.90;;;;;;5095787;28;20199;-78
2022/10/11 02:37:11;;;;;;;1.35;0.60;;;22.20;99.90;;;;;;5094284;28;20665;-78
2022/10/11 02:39:47;;;;;;;2.08;0.60;;;22.10;99.90;;;;;;5094269;28;20213;-78
2022/10/11 02:42:22;;;;;;;1.58;0.70;;;21.90;99.90;;;;;;5093764;28;20771;-78
2022/10/11 02:44:59;;;;;;;2.90;0.60;;;21.80;99.90;;;;;;5094138;28;20183;-78
2022/10/11 02:47:32;;;;;;;2.83;0.80;;;21.80;99.90;;;;;;5075846;28;20207;-78
2022/10/11 02:50:05;;;;;;;2.83;0.70;;;21.60;99.90;;;;;;5087475;28;20195;-78
2022/10/11 02:52:36;;;;;;;2.28;0.80;;;21.90;99.90;;;;;;5093268;28;20211;-77
2022/10/11 02:55:08;;;;;;;1.13;0.50;;;22.10;99.90;;;;;;5093948;28;20199;-77
2022/10/11 02:57:39;;;;;;;3.35;0.60;;;22.10;99.90;;;;;;5092350;28;20195;-78
2022/10/11 03:00:11;;;;;;;1.35;0.68;;;22.30;99.90;;;;;;5092369;28;20195;-77
2022/10/11 03:02:43;;;;;;;4.53;0.80;;;22.50;99.90;;;;;;5090932;28;20842;-77
2022/10/11 03:05:16;;;;;;;2.95;0.90;;;22.40;99.90;;;;;;5071533;28;20252;-77
2022/10/11 03:07:47;;;;;;;1.73;0.60;;;22.30;99.90;;;;;;5089305;28;20196;-79
2022/10/11 03:10:18;;;;;;;2.30;0.65;;;22.10;99.90;;;;;;5092673;28;20199;-79
2022/10/11 03:12:49;;;;;;;3.40;0.70;;;22.00;99.90;;;;;;5105478;28;20206;-78
2022/10/11 03:15:20;;;;;;;2.42;0.70;;;21.90;99.90;;;;;;5083313;28;20227;-78
2022/10/11 03:17:51;;;;;;;1.38;0.60;;;21.80;99.90;;;;;;5072381;28;20260;-80
2022/10/11 03:20:25;;;;;;;1.63;0.60;;;21.60;99.90;;;;;;5072475;28;20203;-78
2022/10/11 03:22:56;;;;;;;0.98;0.63;;;21.50;99.90;;;;;;5079842;28;20222;-78
2022/10/11 03:25:27;;;;;;;3.85;0.88;;;21.40;99.90;;;;;;5092308;28;20195;-79
2022/10/11 03:27:58;;;;;;;1.27;0.60;;;21.30;99.90;;;;;;5094355;28;20217;-79
2022/10/11 03:30:29;;;;;;;1.95;0.68;;;21.20;99.90;;;;;;5095344;28;20278;-79
2022/10/11 03:33:00;;;;;;;5.15;0.70;;;21.20;99.90;;;;;;5091595;28;20732;-78
2022/10/11 03:35:33;;;;;;;2.40;0.80;;;21.20;99.90;;;;;;5090200;28;20653;-78
2022/10/11 03:38:04;;;;;;;2.20;0.60;;;21.20;99.90;;;;;;5078901;28;20203;-78
2022/10/11 03:40:35;;;;;;;2.00;0.55;;;21.00;99.90;;;;;;5090207;28;20199;-78
2022/10/11 03:43:06;;;;;;;2.10;0.77;;;21.40;99.90;;;;;;5091721;28;20574;-78
2022/10/11 03:45:37;;;;;;;1.90;0.73;;;21.90;99.90;;;;;;5089500;28;20661;-78
2022/10/11 03:48:08;;;;;;;0.85;0.55;;;22.10;99.90;;;;;;5071234;28;20554;-78
2022/10/11 03:50:41;;;;;;;0.60;0.55;;;22.00;99.90;;;;;;5071666;28;20726;-78
2022/10/11 03:53:12;;;;;;;2.22;0.70;;;22.30;99.90;;;;;;5071511;28;20199;-78
2022/10/11 03:55:43;;;;;;;1.38;0.50;;;22.60;99.90;;;;;;5071910;28;20218;-77
2022/10/11 03:58:16;;;;;;;2.42;0.50;;;23.10;99.90;;;;;;5071325;28;20769;-77
2022/10/11 04:00:47;;;;;;;1.13;0.57;;;23.20;99.90;;;;;;5071408;28;20196;-78
2022/10/11 04:03:18;;;;;;;0.55;0.50;;;22.80;99.90;;;;;;5071008;28;20323;-78
2022/10/11 04:05:51;;;;;;;2.30;0.80;;;22.50;99.90;;;;;;5071259;28;20203;-78
2022/10/11 04:08:22;;;;;;;0.77;0.70;;;22.50;99.90;;;;;;5070775;28;20226;-78
2022/10/11 04:10:53;;;;;;;2.42;0.70;;;22.40;99.90;;;;;;5072339;28;20646;-78
2022/10/11 04:13:24;;;;;;;3.35;0.70;;;22.40;99.90;;;;;;5089791;28;20219;-78
2022/10/11 04:15:55;;;;;;;3.35;0.60;;;22.30;99.90;;;;;;5091141;28;20202;-78
2022/10/11 04:18:26;;;;;;;2.35;0.80;;;22.20;99.90;;;;;;5094473;28;20233;-78
2022/10/11 04:21:01;;;;;;;1.35;0.57;;;22.20;99.90;;;;;;5091554;28;20202;-78
2022/10/11 04:23:33;;;;;;;1.35;0.52;;;22.40;99.90;;;;;;5092913;28;20225;-77
2022/10/11 04:26:12;;;;;;;1.65;0.60;;;22.40;99.90;;;;;;5105831;28;20617;-77
2022/10/11 04:28:43;;;;;;;2.05;0.70;;;22.30;99.90;;;;;;5080767;28;20582;-77
2022/10/11 04:31:14;;;;;;;2.00;0.60;;;22.00;99.90;;;;;;5091834;28;20581;-77
2022/10/11 04:33:45;;;;;;;2.50;0.80;;;21.90;99.90;;;;;;5091130;28;20203;-77
2022/10/11 04:36:17;;;;;;;1.65;0.60;;;21.60;99.90;;;;;;5091366;28;20205;-77
2022/10/11 04:38:48;;;;;;;1.38;0.50;;;21.50;99.90;;;;;;5091071;28;20205;-76
2022/10/11 04:41:19;;;;;;;6.32;0.75;;;21.30;99.90;;;;;;5091178;28;20222;-77
2022/10/11 04:43:51;;;;;;;1.95;0.73;;;21.20;99.90;;;;;;5091258;28;20725;-77
2022/10/11 04:46:21;;;;;;;1.10;0.70;;;21.10;99.90;;;;;;5089452;28;20206;-77
2022/10/11 04:48:52;;;;;;;1.70;0.77;;;21.00;99.90;;;;;;5090329;28;20669;-77
2022/10/11 04:51:26;;;;;;;2.50;0.90;;;21.00;99.90;;;;;;5090811;28;20206;-76
2022/10/11 04:53:57;;;;;;;1.60;0.60;;;20.90;99.90;;;;;;5091367;28;20205;-77
2022/10/11 04:56:29;;;;;;;2.85;0.90;;;21.00;99.90;;;;;;5091461;28;20666;-77
2022/10/11 04:59:00;;;;;;;2.67;0.80;;;21.00;99.90;;;;;;5091767;28;20199;-77
2022/10/11 05:01:31;;;;;;;3.53;0.70;;;21.00;99.90;;;;;;5089388;28;20285;-77
2022/10/11 05:04:02;;;;;;;3.65;0.90;;;20.80;99.90;;;;;;5072759;28;20234;-78
2022/10/11 05:06:35;;;;;;;3.60;0.85;;;20.70;99.90;;;;;;5070977;28;20227;-77
2022/10/11 05:09:06;;;;;;;1.45;0.77;;;20.70;99.90;;;;;;5070946;28;20200;-77
2022/10/11 05:11:37;;;;;;;2.15;0.60;;;20.60;99.90;;;;;;5089241;28;20191;-78
2022/10/11 05:14:08;;;;;;;2.40;0.90;;;20.60;99.90;;;;;;5091385;28;20223;-77
2022/10/11 05:16:39;;;;;;;1.33;0.60;;;20.60;99.90;;;;;;5090965;28;20197;-77
2022/10/11 05:19:10;;;;;;;1.92;0.60;;;20.60;99.90;;;;;;5090940;28;20267;-76
2022/10/11 05:21:48;;;;;;;3.25;0.70;;;20.60;99.90;;;;;;5100717;28;20199;-79
2022/10/11 05:24:19;;;;;;;2.67;0.70;;;20.50;99.90;;;;;;5092117;28;20695;-77
2022/10/11 05:26:50;;;;;;;2.35;0.70;;;20.50;99.90;;;;;;5078398;28;20537;-77
2022/10/11 05:29:21;;;;;;;1.25;0.70;;;20.60;99.90;;;;;;5072942;28;20203;-77
2022/10/11 05:31:52;;;;;;;0.65;0.60;;;20.60;99.90;;;;;;5074292;28;20200;-76
2022/10/11 05:34:23;;;;;;;1.33;0.60;;;20.70;99.90;;;;;;5077887;28;20389;-77
2022/10/11 05:36:57;;;;;;;1.75;0.70;;;20.80;99.90;;;;;;5081734;28;20195;-78
2022/10/11 05:39:28;;;;;;;1.60;0.80;;;21.10;99.90;;;;;;5075218;28;20651;-78
2022/10/11 05:41:59;;;;;;;1.40;0.50;;;21.50;99.90;;;;;;5076010;28;20198;-78
2022/10/11 05:44:30;;;;;;;2.30;0.73;;;22.30;99.90;;;;;;5075727;28;20387;-78
2022/10/11 05:47:01;;;;;;;2.13;0.77;;;23.10;99.90;;;;;;5094290;28;20202;-77
2022/10/11 05:49:32;;;;;;;2.90;0.80;;;23.60;99.90;;;;;;5095218;28;20191;-78
2022/10/11 05:52:06;;;;;;;2.70;0.80;;;24.10;99.90;;;;;;5094362;28;20689;-77
2022/10/11 05:54:37;;;;;;;1.98;0.77;;;24.50;99.90;;;;;;5095536;28;20209;-78
2022/10/11 05:57:08;;;;;;;1.00;0.60;;;24.70;99.90;;;;;;5095035;28;20677;-78
2022/10/11 05:59:39;;;;;;;3.22;0.70;;;24.90;99.90;;;;;;5094503;28;20206;-78
2022/10/11 06:02:12;;;;;;;1.52;0.65;;;25.10;99.90;;;;;;5094067;28;20199;-78
2022/10/11 06:04:43;;;;;;;1.58;0.60;;;24.90;99.90;;;;;;5093548;28;20196;-78
2022/10/11 06:07:16;;;;;;;2.33;0.50;;;25.20;99.80;;;;;;5093366;28;20201;-77
2022/10/11 06:09:48;;;;;;;1.48;0.88;;;25.50;99.50;;;;;;5088326;28;20286;-78
2022/10/11 06:12:27;;;;;;;1.65;0.60;;;25.70;99.10;;;;;;5073053;28;20219;-79
2022/10/11 06:14:58;;;;;;;1.63;0.70;;;25.80;95.80;;;;;;5074527;28;20672;-77
2022/10/11 06:17:30;;;;;;;1.42;0.80;;;25.70;96.90;;;;;;5087420;28;20333;-78
2022/10/11 06:20:01;;;;;;;1.17;0.60;;;25.90;94.10;;;;;;5093435;28;20541;-78
2022/10/11 06:22:34;;;;;;;1.40;0.57;;;25.70;91.90;;;;;;5093778;28;20215;-79
2022/10/11 06:25:05;;;;;;;1.50;0.70;;;25.70;90.10;;;;;;5093286;28;20239;-78
2022/10/11 06:27:36;;;;;;;1.85;0.60;;;25.70;91.80;;;;;;5094693;28;20202;-78
2022/10/11 06:30:07;;;;;;;1.27;0.60;;;25.90;90.40;;;;;;5084730;28;20228;-78
2022/10/11 06:32:38;;;;;;;2.03;0.70;;;26.00;90.40;;;;;;5072879;28;20222;-78
2022/10/11 06:35:10;;;;;;;0.90;0.50;;;26.00;90.30;;;;;;5072688;28;20955;-77
2022/10/11 06:37:43;;;;;;;2.30;0.60;;;26.00;90.70;;;;;;5075999;28;20257;-78
2022/10/11 06:40:14;;;;;;;0.95;0.50;;;25.90;90.20;;;;;;5079511;28;20205;-77
2022/10/11 06:42:49;;;;;;;1.70;0.63;;;25.90;88.60;;;;;;5092264;28;20223;-77
2022/10/11 06:45:20;;;;;;;0.90;0.57;;;26.00;90.70;;;;;;5077469;28;20578;-77
2022/10/11 06:47:51;;;;;;;2.95;0.70;;;25.90;91.90;;;;;;5072701;28;20211;-77
2022/10/11 06:50:24;;;;;;;0.93;0.60;;;25.90;92.40;;;;;;5073037;28;20282;-78
2022/10/11 06:52:57;;;;;;;3.05;0.60;;;25.90;91.40;;;;;;5072441;28;20666;-78
2022/10/11 06:55:28;;;;;;;2.08;0.80;;;25.90;92.50;;;;;;5073199;28;20514;-79
2022/10/11 06:58:00;;;;;;;0.98;0.70;;;25.50;92.40;;;;;;5073096;28;20568;-78
2022/10/11 07:00:31;;;;;;;1.48;0.60;;;24.80;96.40;;;;;;5091661;28;20222;-78
2022/10/11 07:03:02;;;;;;;1.85;0.52;;;24.70;96.80;;;;;;5071888;28;20264;-77
2022/10/11 07:05:34;;;;;;;2.08;0.88;;;24.80;96.60;;;;;;5073417;28;20677;-78
2022/10/11 07:08:07;;;;;;;1.75;0.70;;;24.80;96.70;;;;;;5084523;28;20298;-78
2022/10/11 07:10:39;;;;;;;1.90;0.82;;;24.60;96.70;;;;;;5097540;28;20206;-77
2022/10/11 07:13:10;;;;;;;1.70;0.70;;;24.50;97.30;;;;;;5098907;28;20202;-78
2022/10/11 07:15:41;;;;;;;1.70;0.65;;;24.10;98.40;;;;;;5092208;28;20313;-78
2022/10/11 07:18:12;;;;;;;3.70;1.13;;;23.70;99.90;;;;;;5073041;28;20265;-79
2022/10/11 07:20:44;;;;;;;1.13;0.52;;;23.40;99.90;;;;;;5077489;28;20183;-79
2022/10/11 07:23:17;;;;;;;2.53;0.85;;;23.00;99.90;;;;;;5091904;28;20589;-79
2022/10/11 07:25:48;;;;;;;1.23;0.60;;;22.60;99.90;;;;;;5092492;28;20570;-78
2022/10/11 07:28:19;;;;;;;1.58;0.60;;;22.10;99.90;;;;;;5092611;28;20658;-79
2022/10/11 07:30:51;;;;;;;1.73;0.90;;;22.00;99.90;;;;;;5091549;28;20203;-78
2022/10/11 07:33:22;;;;;;;1.90;1.00;;;21.70;99.90;;;;;;5093033;28;20199;-78
2022/10/11 07:35:53;;;;;;;2.65;1.30;;;21.40;99.90;;;;;;5103188;28;20206;-78
2022/10/11 07:38:26;;;;;;;3.22;0.80;;;21.10;99.90;;;;;;5092417;28;20290;-78
2022/10/11 07:40:57;;;;;;;1.83;0.75;;;20.90;99.90;;;;;;5092124;28;20199;-78
2022/10/11 07:43:28;;;;;;;1.83;0.75;;;20.80;99.90;;;;;;5092165;28;20331;-78
2022/10/11 07:46:02;;;;;;;1.77;0.80;;;20.60;99.90;;;;;;5092645;28;20198;-78
2022/10/11 07:48:34;;;;;;;1.73;0.90;;;20.40;99.90;;;;;;5091121;28;20244;-77
2022/10/11 07:51:07;;;;;;;1.05;0.75;;;20.30;99.90;;;;;;5090825;28;20199;-77
2022/10/11 07:53:44;;;;;;;2.42;1.10;;;20.10;99.90;;;;;;5073613;28;20226;-78
2022/10/11 07:56:16;;;;;;;3.42;1.20;;;20.00;99.90;;;;;;5071381;28;20191;-78
2022/10/11 07:58:51;;;;;;;3.78;1.10;;;19.90;99.90;;;;;;5071397;28;20200;-78
2022/10/11 08:01:23;;;;;;;2.85;1.10;;;19.80;99.90;;;;;;5071767;28;20203;-78
2022/10/11 08:03:55;;;;;;;3.08;1.10;;;19.80;99.90;;;;;;5082476;28;20231;-79
2022/10/11 08:06:30;;;;;;;3.13;1.02;;;19.60;99.90;;;;;;5091315;28;20198;-78
2022/10/11 08:09:04;;;;;;;1.83;0.90;;;19.50;99.90;;;;;;5090790;28;20199;-78
2022/10/11 08:11:37;;;;;;;3.38;1.10;;;19.50;99.90;;;;;;5091785;28;20244;-78
2022/10/11 08:14:10;;;;;;;2.95;0.90;;;19.50;99.90;;;;;;5091366;28;20713;-78
2022/10/11 08:16:41;;;;;;;3.33;0.90;;;19.40;99.90;;;;;;5091227;28;20191;-79
2022/10/11 08:19:13;;;;;;;3.70;1.38;;;19.40;99.90;;;;;;5090132;28;20281;-79
2022/10/11 08:21:44;;;;;;;2.10;0.93;;;19.30;99.90;;;;;;5090929;28;20210;-78
2022/10/11 08:24:19;;;;;;;2.10;1.05;;;19.30;99.90;;;;;;5091151;28;20229;-78
2022/10/11 08:26:50;;;;;;;3.50;1.00;;;19.20;99.90;;;;;;5079359;28;20721;-78
2022/10/11 08:29:21;;;;;;;1.48;0.80;;;19.20;99.90;;;;;;5071453;28;20195;-77
2022/10/11 08:31:52;;;;;;;3.45;0.90;;;19.10;99.90;;;;;;5070796;28;20214;-78
2022/10/11 08:34:23;;;;;;;1.42;0.85;;;19.10;99.90;;;;;;5074134;28;20198;-78
2022/10/11 08:36:54;;;;;;;2.78;1.13;;;19.10;99.90;;;;;;5091607;28;20200;-78
2022/10/11 08:39:27;;;;;;;3.80;0.90;;;19.10;99.90;;;;;;5093195;28;20646;-77
2022/10/11 08:42:02;;;;;;;3.95;1.13;;;19.00;99.90;;;;;;5093382;28;20222;-77
2022/10/11 08:44:43;;;;;;;2.08;1.00;;;19.00;99.90;;;;;;5072736;28;20223;-78
2022/10/11 08:47:19;;;;;;;4.15;1.30;;;18.90;99.90;;;;;;5070791;28;20249;-78
2022/10/11 08:49:51;;;;;;;4.40;1.38;;;19.00;99.90;;;;;;5071101;28;20298;-78
2022/10/11 08:52:26;;;;;;;2.20;0.90;;;19.00;99.90;;;;;;5075087;28;20210;-77
2022/10/11 08:55:04;;;;;;;3.33;1.00;;;18.90;99.90;;;;;;5090439;28;20219;-77
2022/10/11 08:57:38;;;;;;;2.15;1.17;;;18.80;99.90;;;;;;5093506;28;20286;-78
2022/10/11 09:00:14;;;;;;;3.28;1.50;;;18.80;99.90;;;;;;5086249;28;20199;-78
2022/10/11 09:02:54;;;;;;;4.13;1.30;;;18.70;99.90;;;;;;5075738;28;20214;-78
2022/10/11 09:05:32;;;;;;;3.55;1.70;;;18.70;99.90;;;;;;5103521;28;20219;-79
2022/10/11 09:08:23;;;;;;;2.35;1.20;;;18.70;99.90;;;;;;5107810;28;20314;-77
2022/10/11 09:14:33;;;;;;;3.28;1.25;;;18.70;99.90;;;;;;5104989;28;20231;-80
2022/10/11 09:17:49;;;;;;;4.00;1.17;;;18.60;99.90;;;;;;5098930;28;20558;-80
2022/10/11 09:20:42;;;;;;;4.43;1.23;;;18.60;99.90;;;;;;5086063;28;20240;-78
2022/10/11 09:23:30;;;;;;;4.38;1.00;;;18.60;99.90;;;;;;5086318;28;20188;-80
2022/10/11 09:26:10;;;;;;;2.80;1.13;;;18.60;99.90;;;;;;5090796;28;20202;-80
2022/10/11 09:28:56;;;;;;;5.03;1.08;;;18.60;99.90;;;;;;5107648;28;20642;-80
2022/10/11 09:31:27;;;;;;;2.53;0.90;;;18.50;99.90;;;;;;5104500;28;20258;-79
2022/10/11 09:34:01;;;;;;;3.92;1.10;;;18.50;99.90;;;;;;5097381;28;20663;-80
2022/10/11 09:36:49;;;;;;;2.85;1.10;;;18.50;99.90;;;;;;5092914;28;20191;-79
2022/10/11 09:39:31;;;;;;;2.17;1.02;;;18.50;99.90;;;;;;5099692;28;20268;-82
2022/10/11 09:42:07;;;;;;;3.05;1.13;;;18.40;99.90;;;;;;5088044;28;20191;-80
2022/10/11 09:44:48;;;;;;;3.90;1.05;;;18.40;99.90;;;;;;5100731;28;20222;-80
2022/10/11 09:47:21;;;;;;;3.10;1.08;;;18.40;99.90;;;;;;5098971;28;20207;-80
2022/10/11 09:50:01;;;;;;;3.25;1.30;;;18.40;99.90;;;;;;5104075;28;20218;-80
2022/10/11 09:52:33;;;;;;;3.45;1.10;;;18.40;99.90;;;;;;5079295;28;20196;-82
2022/10/11 09:55:10;;;;;;;2.38;0.85;;;18.40;99.90;;;;;;5087411;28;20170;-81
2022/10/11 09:57:49;;;;;;;3.40;1.13;;;18.40;99.90;;;;;;5086548;28;20183;-81
2022/10/11 10:00:26;;;;;;;3.38;0.93;;;18.40;99.90;;;;;;5092061;28;20196;-81
2022/10/11 10:02:59;;;;;;;2.88;1.00;;;18.40;99.90;;;;;;5087344;28;20642;-80
2022/10/11 10:05:32;;;;;;;4.28;1.00;;;18.30;99.90;;;;;;5100974;28;20306;-83
2022/10/11 10:08:25;;;;;;;2.33;1.00;;;18.30;99.90;;;;;;5102339;28;20219;-80
2022/10/11 10:11:05;;;;;;;2.13;0.90;;;18.30;99.90;;;;;;5103521;28;20199;-81
2022/10/11 10:13:45;;;;;;;3.35;1.10;;;18.20;99.90;;;;;;5102810;28;20282;-79
2022/10/11 10:16:30;;;;;;;2.03;1.00;;;18.20;99.90;;;;;;5102052;28;20203;-80
2022/10/11 10:19:03;;;;;;;3.17;0.90;;;18.20;99.90;;;;;;5107004;28;20223;-80
2022/10/11 10:21:57;;;;;;;2.83;1.02;;;18.20;99.90;;;;;;5102393;28;20573;-80
2022/10/11 10:24:38;;;;;;;1.98;0.90;;;18.20;99.90;;;;;;5108513;28;20309;-82
2022/10/11 10:27:19;;;;;;;3.38;0.98;;;18.20;99.90;;;;;;5099001;28;20195;-83
2022/10/11 10:30:14;;;;;;;3.95;0.90;;;18.20;99.90;;;;;;5101088;28;20195;-82
2022/10/11 10:32:53;;;;;;;2.60;0.90;;;18.20;99.90;;;;;;5098681;28;20187;-81
2022/10/11 10:35:38;;;;;;;3.70;0.90;;;18.20;99.90;;;;;;5088023;28;20667;-80
2022/10/11 10:38:26;;;;;;;4.30;0.70;;;18.10;99.90;;;;;;5099719;28;20545;-80
2022/10/11 10:40:59;;;;;;;1.40;0.80;;;18.20;99.90;;;;;;5099765;28;20214;-81
2022/10/11 10:43:34;;;;;;;3.47;0.73;;;18.10;99.90;;;;;;5090848;28;20310;-81
2022/10/11 10:46:34;;;;;;;4.35;0.95;;;18.10;99.90;;;;;;5095708;28;20659;-81
2022/10/11 10:49:14;;;;;;;1.35;0.60;;;18.10;99.90;;;;;;5073542;28;20585;-80
2022/10/11 10:51:56;;;;;;;3.90;0.90;;;18.10;99.90;;;;;;5092201;28;20225;-79
2022/10/11 10:54:38;;;;;;;3.00;0.70;;;18.10;99.90;;;;;;5087102;28;20219;-80
2022/10/11 10:57:18;;;;;;;1.48;0.60;;;18.00;99.90;;;;;;5082105;28;20204;-80
2022/10/11 11:00:07;;;;;;;2.60;0.80;;;18.00;99.90;;;;;;5093209;28;20274;-80
2022/10/11 11:02:50;;;;;;;2.63;1.00;;;18.00;99.90;;;;;;5094111;28;20195;-80
2022/10/11 11:09:22;;;;;;;2.78;0.93;;;18.00;99.90;;;;;;5101294;28;20187;-82
2022/10/11 11:12:03;;;;;;;2.72;1.05;;;18.00;99.90;;;;;;5100150;28;20248;-79
2022/10/11 11:14:53;;;;;;;2.85;1.10;;;18.00;99.90;;;;;;5101736;28;20235;-79
2022/10/11 11:17:35;;;;;;;3.15;1.10;;;17.90;99.90;;;;;;5098437;28;20207;-79
2022/10/11 11:20:29;;;;;;;4.80;1.27;;;17.90;99.90;;;;;;5092648;28;20195;-80
2022/10/11 11:23:18;;;;;;;3.97;1.33;;;17.80;99.90;;;;;;5082312;28;20215;-81
2022/10/11 11:26:20;;;;;;;2.42;1.05;;;17.80;99.90;;;;;;5086036;28;20224;-81
2022/10/11 11:29:14;;;;;;;4.13;1.10;;;17.80;99.90;;;;;;5086235;28;20229;-81
2022/10/11 11:32:08;;;;;;;3.17;1.30;;;17.80;99.90;;;;;;5092575;28;20223;-81
2022/10/11 11:35:04;;;;;;;2.75;1.20;;;17.80;99.90;;;;;;5088432;28;20307;-82
2022/10/11 11:37:40;;;;;;;3.40;1.25;;;17.80;99.90;;;;;;5072428;28;20199;-80
2022/10/11 11:46:46;;;;;;;1.95;1.00;;;17.80;99.90;;;;;;5088121;28;20203;-81
2022/10/11 11:49:33;;;;;;;2.75;1.13;;;17.80;99.90;;;;;;5097215;28;20537;-82
2022/10/11 11:52:07;;;;;;;4.55;1.40;;;17.70;99.90;;;;;;5061380;28;20650;-81
2022/10/11 11:57:48;;;;;;;2.83;1.25;;;17.70;99.90;;;;;;5106408;28;20206;-81
2022/10/11 12:00:21;;;;;;;4.13;1.10;;;17.70;99.90;;;;;;5092452;28;20196;-80
2022/10/11 12:03:03;;;;;;;3.00;0.90;;;17.70;99.90;;;;;;5078444;28;20460;-79
2022/10/11 12:05:39;;;;;;;3.03;0.90;;;17.70;99.90;;;;;;5097190;28;20261;-80
2022/10/11 12:08:38;;;;;;;3.72;0.90;;;17.70;99.90;;;;;;5093399;28;20202;-82
2022/10/11 12:11:32;;;;;;;1.85;0.70;;;17.70;99.90;;;;;;5087488;28;20222;-81
2022/10/11 12:14:26;;;;;;;9.55;1.30;;;17.70;99.90;;;;;;5095930;28;20713;-81
2022/10/11 12:17:30;;;;;;;2.83;0.90;;;17.70;99.90;;;;;;5095300;28;20302;-81
2022/10/11 12:20:37;;;;;;;2.88;0.90;;;17.70;99.90;;;;;;5033822;28;20209;-82
2022/10/11 12:23:44;;;;;;;2.70;0.93;;;17.70;99.90;;;;;;5033910;28;20197;-80
2022/10/11 12:26:41;;;;;;;2.92;0.77;;;17.70;99.90;;;;;;5016012;28;20220;-80
2022/10/11 12:29:43;;;;;;;3.05;0.70;;;17.70;99.90;;;;;;5022515;28;20217;-80
2022/10/11 12:36:10;;;;;;;2.88;0.60;;;17.60;99.90;;;;;;5102307;28;20282;-79
2022/10/11 12:38:45;;;;;;;2.78;0.60;;;17.60;99.90;;;;;;5086337;28;20199;-80
2022/10/11 12:41:47;;;;;;;2.05;0.70;;;17.60;99.90;;;;;;5090792;28;20669;-78
2022/10/11 12:44:47;;;;;;;2.03;0.50;;;17.60;99.90;;;;;;5093471;28;20229;-81
2022/10/11 12:50:58;;;;;;;1.73;0.63;;;17.60;99.90;;;;;;5101441;28;20210;-78
2022/10/11 12:53:49;;;;;;;4.25;0.95;;;17.60;99.90;;;;;;5102636;28;20197;-78
2022/10/11 12:56:30;;;;;;;3.58;0.90;;;17.60;99.90;;;;;;5095576;28;20200;-80
2022/10/11 12:59:05;;;;;;;2.40;0.65;;;17.60;99.90;;;;;;5097504;28;20262;-80
2022/10/11 13:01:50;;;;;;;2.88;0.80;;;17.60;99.90;;;;;;5087367;28;20195;-79
2022/10/11 13:04:25;;;;;;;5.07;0.80;;;17.60;99.90;;;;;;5091311;28;20235;-76
2022/10/11 13:07:01;;;;;;;2.67;0.82;;;17.50;99.90;;;;;;5089613;28;20510;-78
2022/10/11 13:09:43;;;;;;;3.83;1.10;;;17.50;99.90;;;;;;5103354;28;20695;-77
2022/10/11 13:12:19;;;;;;;3.33;0.85;;;17.50;99.90;;;;;;5080270;28;20224;-78
2022/10/11 13:15:05;;;;;;;3.95;0.88;;;17.50;99.90;;;;;;5094369;28;20235;-77
2022/10/11 13:17:41;;;;;;;1.38;0.70;;;17.50;99.90;;;;;;5100273;28;20183;-77
2022/10/11 13:20:26;;;;;;;4.15;0.90;;;17.50;99.90;;;;;;5124198;28;20198;-77
2022/10/11 13:23:01;;;;;;;2.60;0.70;;;17.50;99.90;;;;;;5104878;28;20188;-78
2022/10/11 13:25:38;;;;;;;3.58;0.77;;;17.40;99.90;;;;;;5096348;28;20221;-79
2022/10/11 13:28:12;;;;;;;1.77;0.80;;;17.50;99.90;;;;;;5094614;28;20207;-77
2022/10/11 13:30:48;;;;;;;3.45;1.02;;;17.40;99.90;;;;;;5084440;28;20203;-77
2022/10/11 13:33:26;;;;;;;2.90;1.02;;;17.40;99.90;;;;;;5074850;28;20705;-77
2022/10/11 13:35:57;;;;;;;4.05;1.00;;;17.40;99.90;;;;;;5086421;28;20200;-77
2022/10/11 13:38:30;;;;;;;3.67;0.65;;;17.40;99.90;;;;;;5094744;28;20199;-78
2022/10/11 13:41:04;;;;;;;2.75;0.80;;;17.40;99.90;;;;;;5092862;28;20278;-77
2022/10/11 13:43:36;;;;;;;2.97;0.70;;;17.40;99.90;;;;;;5094627;28;20195;-78
2022/10/11 13:46:07;;;;;;;1.88;0.70;;;17.40;99.90;;;;;;5092495;28;20230;-77
2022/10/11 13:48:44;;;;;;;3.30;0.80;;;17.30;99.90;;;;;;5091871;28;20622;-76
2022/10/11 13:51:28;;;;;;;2.25;0.95;;;17.40;99.90;;;;;;5076547;28;20196;-77
2022/10/11 13:54:06;;;;;;;1.77;0.60;;;17.40;99.90;;;;;;5083316;28;20288;-77
2022/10/11 13:56:43;;;;;;;2.75;1.00;;;17.30;99.90;;;;;;5085189;28;20744;-76
2022/10/11 13:59:20;;;;;;;4.75;1.08;;;17.30;99.90;;;;;;5073520;28;20678;-76